Time;durP1;ratioP1;P1;durP2;ratioP2;P2;SDS_P1;SDS_P2;PMS_P1;PMS_P2;Temp;Humidity;BMP_temperature;BMP_pressure;BME280_temperature;BME280_humidity;BME280_pressure;Samples;Min_cycle;Max_cycle;Signal;HPM_P1;HPM_P2
2021/12/07 00:01:14;;;;;;;12.70;3.88;;;;;;;;;;4988092;28;20058;-68
2021/12/07 00:03:42;;;;;;;13.70;3.35;;;;;;;;;;5004308;28;20106;-68
2021/12/07 00:06:08;;;;;;;9.43;2.80;;;;;;;;;;5006485;28;20034;-68
2021/12/07 00:08:34;;;;;;;10.43;2.72;;;;;;;;;;5006211;28;20022;-68
2021/12/07 00:11:00;;;;;;;11.55;3.00;;;;;;;;;;5003174;28;20120;-68
2021/12/07 00:13:29;;;;;;;14.38;3.13;;;;;;;;;;5007576;28;20122;-68
2021/12/07 00:15:54;;;;;;;13.68;2.70;;;;;;;;;;5006327;28;20040;-68
2021/12/07 00:18:20;;;;;;;9.48;2.88;;;;;;;;;;5007346;28;20034;-68
2021/12/07 00:20:45;;;;;;;9.93;2.90;;;;;;;;;;5004305;28;20029;-68
2021/12/07 00:23:10;;;;;;;10.68;3.67;;;;;;;;;;5003823;28;20480;-68
2021/12/07 00:25:37;;;;;;;9.40;3.25;;;;;;;;;;5005808;28;20045;-68
2021/12/07 00:28:04;;;;;;;9.65;3.53;;;;;;;;;;5007075;28;20042;-68
2021/12/07 00:30:32;;;;;;;17.52;3.33;;;;;;;;;;4989808;28;20053;-68
2021/12/07 00:35:34;;;;;;;13.40;3.83;;;;;;;;;;5002278;28;20030;-68
2021/12/07 00:38:19;;;;;;;14.48;3.67;;;;;;;;;;5004994;28;20036;-68
2021/12/07 00:40:46;;;;;;;9.70;3.05;;;;;;;;;;5006970;28;20046;-68
2021/12/07 00:43:13;;;;;;;14.13;3.70;;;;;;;;;;5006873;28;20140;-68
2021/12/07 00:45:41;;;;;;;7.68;3.03;;;;;;;;;;5008318;28;20038;-68
2021/12/07 00:48:08;;;;;;;10.95;3.15;;;;;;;;;;5004405;28;20504;-68
2021/12/07 00:50:35;;;;;;;16.25;2.60;;;;;;;;;;5005489;28;20045;-68
2021/12/07 00:53:02;;;;;;;9.98;2.95;;;;;;;;;;5005698;28;20579;-68
2021/12/07 00:55:30;;;;;;;12.95;3.42;;;;;;;;;;4987573;28;20515;-69
2021/12/07 00:57:58;;;;;;;12.32;2.45;;;;;;;;;;5005191;28;20040;-68
2021/12/07 01:00:25;;;;;;;14.43;2.72;;;;;;;;;;5003604;28;20092;-68
2021/12/07 01:02:53;;;;;;;12.23;2.83;;;;;;;;;;4996624;28;20026;-68
2021/12/07 01:05:27;;;;;;;10.80;2.83;;;;;;;;;;5009458;28;20491;-68
2021/12/07 01:27:02;;;;;;;7.28;2.08;;;;;;;;;;5008934;28;20091;-68
2021/12/07 01:29:28;;;;;;;10.15;2.55;;;;;;;;;;5009633;28;20030;-68
2021/12/07 01:32:29;;;;;;;11.23;3.03;;;;;;;;;;5011368;28;20526;-68
2021/12/07 01:52:58;;;;;;;15.38;4.28;;;;;;;;;;5012725;28;20041;-68
2021/12/07 02:00:52;;;;;;;12.70;4.63;;;;;;;;;;5012634;28;20459;-68
2021/12/07 02:03:18;;;;;;;10.55;4.25;;;;;;;;;;5012367;28;20614;-68
2021/12/07 02:05:43;;;;;;;15.73;5.22;;;;;;;;;;5009630;28;20105;-68
2021/12/07 02:08:09;;;;;;;18.92;4.80;;;;;;;;;;5009125;28;20058;-68
2021/12/07 02:10:35;;;;;;;12.07;4.43;;;;;;;;;;5005311;28;20042;-68
2021/12/07 02:13:07;;;;;;;11.32;3.40;;;;;;;;;;5012150;28;20534;-68
2021/12/07 02:15:33;;;;;;;17.25;5.07;;;;;;;;;;5010654;28;20038;-68
2021/12/07 02:18:00;;;;;;;9.32;3.35;;;;;;;;;;5011356;28;20026;-68
2021/12/07 02:20:27;;;;;;;13.48;3.70;;;;;;;;;;5009508;28;20531;-68
2021/12/07 02:22:53;;;;;;;8.05;3.20;;;;;;;;;;5008375;28;20038;-68
2021/12/07 02:25:20;;;;;;;14.45;3.60;;;;;;;;;;5006537;28;20038;-68
2021/12/07 02:27:47;;;;;;;2.88;1.75;;;;;;;;;;5006995;28;20037;-68
2021/12/07 02:30:19;;;;;;;6.05;2.38;;;;;;;;;;5010381;28;20530;-68
2021/12/07 02:32:46;;;;;;;8.13;2.50;;;;;;;;;;5011723;28;20037;-68
2021/12/07 02:35:13;;;;;;;7.90;2.45;;;;;;;;;;4993996;28;20037;-68
2021/12/07 02:37:39;;;;;;;5.68;2.00;;;;;;;;;;5007423;28;20087;-68
2021/12/07 02:40:07;;;;;;;9.50;1.67;;;;;;;;;;5022879;28;20466;-68
2021/12/07 02:42:33;;;;;;;5.82;1.65;;;;;;;;;;5012864;28;20523;-68
2021/12/07 02:44:58;;;;;;;9.98;1.83;;;;;;;;;;5010886;28;20036;-68
2021/12/07 02:47:24;;;;;;;5.30;1.77;;;;;;;;;;5009890;28;20472;-68
2021/12/07 02:49:49;;;;;;;9.55;1.90;;;;;;;;;;5002872;28;20411;-68
2021/12/07 02:52:16;;;;;;;8.05;1.63;;;;;;;;;;5015159;28;20041;-68
2021/12/07 02:54:45;;;;;;;5.95;1.63;;;;;;;;;;5006513;28;20033;-68
2021/12/07 02:57:12;;;;;;;9.77;1.80;;;;;;;;;;5011175;28;20033;-68
2021/12/07 02:59:51;;;;;;;9.38;1.75;;;;;;;;;;4995740;28;20514;-68
2021/12/07 03:02:19;;;;;;;6.50;1.35;;;;;;;;;;5010197;28;20128;-68
2021/12/07 03:05:13;;;;;;;6.72;1.77;;;;;;;;;;4992541;28;20038;-68
2021/12/07 03:26:29;;;;;;;10.07;1.98;;;;;;;;;;5010148;28;20056;-68
2021/12/07 03:28:58;;;;;;;8.25;1.90;;;;;;;;;;5008504;28;20042;-68
2021/12/07 03:31:26;;;;;;;5.22;1.45;;;;;;;;;;5010797;28;20042;-68
2021/12/07 03:33:53;;;;;;;10.43;1.92;;;;;;;;;;5007409;28;20041;-68
2021/12/07 03:36:20;;;;;;;6.35;1.83;;;;;;;;;;5008612;28;20088;-68
2021/12/07 03:38:46;;;;;;;5.28;1.75;;;;;;;;;;5007288;28;20570;-68
2021/12/07 03:41:11;;;;;;;4.80;1.40;;;;;;;;;;5010488;28;20060;-68
2021/12/07 03:43:37;;;;;;;3.63;1.65;;;;;;;;;;5010182;28;20045;-68
2021/12/07 03:46:04;;;;;;;7.80;1.70;;;;;;;;;;5025062;28;20045;-69
2021/12/07 03:48:29;;;;;;;4.00;1.63;;;;;;;;;;5010108;28;20410;-69
2021/12/07 03:50:55;;;;;;;7.13;1.40;;;;;;;;;;5028137;28;20534;-69
2021/12/07 03:53:20;;;;;;;6.07;1.30;;;;;;;;;;5025516;28;20038;-68
2021/12/07 03:55:46;;;;;;;7.35;1.80;;;;;;;;;;5025816;28;20753;-68
2021/12/07 03:58:12;;;;;;;3.53;1.20;;;;;;;;;;5026966;28;20514;-68
2021/12/07 04:00:40;;;;;;;2.40;1.27;;;;;;;;;;5021604;28;20061;-68
2021/12/07 04:03:09;;;;;;;8.93;1.80;;;;;;;;;;5024241;28;20037;-68
2021/12/07 04:05:36;;;;;;;7.63;1.70;;;;;;;;;;5015522;28;20103;-68
2021/12/07 04:08:04;;;;;;;3.85;1.60;;;;;;;;;;5028035;28;20064;-68
2021/12/07 04:10:29;;;;;;;10.57;1.92;;;;;;;;;;5026013;28;21363;-68
2021/12/07 04:12:54;;;;;;;7.45;1.48;;;;;;;;;;5024437;28;20101;-68
2021/12/07 04:15:20;;;;;;;5.60;1.38;;;;;;;;;;5011133;28;20494;-69
2021/12/07 04:17:46;;;;;;;8.13;1.60;;;;;;;;;;5030817;28;20036;-68
2021/12/07 04:20:14;;;;;;;12.07;1.70;;;;;;;;;;5024471;28;20034;-68
2021/12/07 04:22:40;;;;;;;8.38;1.63;;;;;;;;;;5024704;28;20037;-68
2021/12/07 04:25:08;;;;;;;7.10;1.70;;;;;;;;;;5025865;28;20098;-68
2021/12/07 04:27:39;;;;;;;9.55;1.67;;;;;;;;;;5024867;28;20037;-69
2021/12/07 04:30:30;;;;;;;8.40;1.40;;;;;;;;;;5018104;28;20495;-68
2021/12/07 04:32:56;;;;;;;5.32;1.65;;;;;;;;;;5028069;28;20546;-68
2021/12/07 04:35:22;;;;;;;4.60;1.80;;;;;;;;;;5035771;28;20482;-68
2021/12/07 04:37:48;;;;;;;8.45;2.00;;;;;;;;;;5025162;28;20033;-68
2021/12/07 04:40:17;;;;;;;5.75;1.90;;;;;;;;;;5008741;28;20050;-68
2021/12/07 04:42:43;;;;;;;7.00;1.77;;;;;;;;;;5025615;28;20041;-68
2021/12/07 04:45:16;;;;;;;4.50;2.00;;;;;;;;;;5032871;28;20506;-68
2021/12/07 04:47:59;;;;;;;9.98;2.10;;;;;;;;;;5032070;28;20049;-68
2021/12/07 04:58:36;;;;;;;12.75;2.15;;;;;;;;;;5025870;28;20122;-68
2021/12/07 05:01:09;;;;;;;9.07;2.47;;;;;;;;;;5022491;28;20590;-68
2021/12/07 05:03:35;;;;;;;7.40;2.15;;;;;;;;;;5030351;28;20043;-68
2021/12/07 05:06:01;;;;;;;13.75;2.20;;;;;;;;;;5030054;28;20033;-68
2021/12/07 05:08:43;;;;;;;8.07;2.25;;;;;;;;;;5029809;28;20104;-68
2021/12/07 05:13:52;;;;;;;10.48;2.22;;;;;;;;;;5029719;28;20103;-68
2021/12/07 05:16:40;;;;;;;11.25;2.45;;;;;;;;;;5031328;28;20044;-68
2021/12/07 05:24:47;;;;;;;8.63;2.40;;;;;;;;;;5029590;28;20049;-68
2021/12/07 05:37:58;;;;;;;7.95;2.28;;;;;;;;;;5028858;28;20033;-68
2021/12/07 05:40:27;;;;;;;8.32;2.20;;;;;;;;;;5028158;28;20214;-68
2021/12/07 05:42:54;;;;;;;8.68;2.13;;;;;;;;;;5027661;28;20050;-68
2021/12/07 05:45:26;;;;;;;3.88;1.83;;;;;;;;;;5029029;28;20038;-68
2021/12/07 05:47:51;;;;;;;13.25;2.75;;;;;;;;;;5028595;28;20140;-68
2021/12/07 05:50:22;;;;;;;15.30;2.60;;;;;;;;;;5027284;28;21490;-68
2021/12/07 05:52:48;;;;;;;15.68;2.78;;;;;;;;;;5028166;28;20129;-68
2021/12/07 05:55:13;;;;;;;10.68;2.05;;;;;;;;;;5028520;28;20073;-68
2021/12/07 05:57:39;;;;;;;7.00;2.17;;;;;;;;;;5025197;28;20406;-68
2021/12/07 06:00:08;;;;;;;7.28;1.65;;;;;;;;;;5030562;28;20054;-68
2021/12/07 06:02:33;;;;;;;12.18;2.30;;;;;;;;;;5030643;28;20029;-68
2021/12/07 06:04:59;;;;;;;8.30;2.20;;;;;;;;;;5028264;28;20045;-68
2021/12/07 06:07:24;;;;;;;6.82;1.80;;;;;;;;;;5029304;28;20040;-68
2021/12/07 06:09:49;;;;;;;10.52;2.20;;;;;;;;;;5028623;28;20057;-68
2021/12/07 06:12:15;;;;;;;9.32;2.35;;;;;;;;;;5028560;28;20037;-68
2021/12/07 06:14:43;;;;;;;11.00;1.85;;;;;;;;;;5030327;28;20517;-68
2021/12/07 06:17:09;;;;;;;17.15;5.35;;;;;;;;;;5028346;28;20064;-68
2021/12/07 06:19:35;;;;;;;46.42;15.48;;;;;;;;;;5028740;28;20034;-68
2021/12/07 06:22:00;;;;;;;11.10;2.70;;;;;;;;;;5029029;28;20041;-68
2021/12/07 06:24:25;;;;;;;11.05;3.17;;;;;;;;;;5028630;28;20198;-68
2021/12/07 06:26:51;;;;;;;9.35;2.08;;;;;;;;;;5025898;28;20409;-68
2021/12/07 06:29:16;;;;;;;14.75;2.38;;;;;;;;;;5029986;28;20048;-68
2021/12/07 06:31:42;;;;;;;7.72;2.15;;;;;;;;;;5030296;28;20117;-68
2021/12/07 06:34:10;;;;;;;5.88;2.65;;;;;;;;;;5029221;28;20041;-68
2021/12/07 06:36:36;;;;;;;18.55;2.53;;;;;;;;;;5029398;28;20387;-69
2021/12/07 06:39:02;;;;;;;6.72;2.38;;;;;;;;;;5026454;28;20030;-68
2021/12/07 06:41:27;;;;;;;11.80;2.42;;;;;;;;;;5026674;28;20095;-69
2021/12/07 06:43:53;;;;;;;10.73;3.58;;;;;;;;;;5009078;28;20462;-68
2021/12/07 06:46:18;;;;;;;10.05;3.70;;;;;;;;;;5020320;28;20049;-68
2021/12/07 06:48:44;;;;;;;19.83;4.28;;;;;;;;;;4996970;28;20049;-68
2021/12/07 06:51:09;;;;;;;19.88;7.30;;;;;;;;;;5021075;28;20042;-68
2021/12/07 06:53:37;;;;;;;30.02;10.07;;;;;;;;;;5027149;28;20030;-68
2021/12/07 06:56:06;;;;;;;22.65;8.98;;;;;;;;;;5011593;28;20050;-68
2021/12/07 06:58:31;;;;;;;26.17;10.13;;;;;;;;;;5027500;28;20045;-68
2021/12/07 07:00:57;;;;;;;23.55;7.82;;;;;;;;;;5010744;28;20057;-68
2021/12/07 07:03:22;;;;;;;12.50;4.03;;;;;;;;;;5011221;28;20038;-68
2021/12/07 07:05:48;;;;;;;6.75;2.50;;;;;;;;;;5012118;28;20407;-68
2021/12/07 07:08:15;;;;;;;7.90;2.38;;;;;;;;;;5021729;28;20048;-68
2021/12/07 07:10:40;;;;;;;13.40;3.60;;;;;;;;;;5017550;28;20050;-68
2021/12/07 07:13:06;;;;;;;13.57;2.75;;;;;;;;;;5013831;28;20046;-68
2021/12/07 07:15:31;;;;;;;8.77;2.53;;;;;;;;;;5021592;28;20046;-68
2021/12/07 07:17:56;;;;;;;10.27;2.78;;;;;;;;;;5016514;28;20061;-68
2021/12/07 07:20:22;;;;;;;11.43;2.28;;;;;;;;;;5023217;28;20022;-68
2021/12/07 07:22:48;;;;;;;14.13;3.20;;;;;;;;;;5014505;28;20042;-71
2021/12/07 07:25:14;;;;;;;10.80;2.42;;;;;;;;;;5007769;28;20041;-68
2021/12/07 07:27:40;;;;;;;8.82;2.88;;;;;;;;;;5005946;28;20042;-69
2021/12/07 07:30:07;;;;;;;9.10;2.30;;;;;;;;;;5005624;28;20451;-67
2021/12/07 07:32:33;;;;;;;9.45;2.97;;;;;;;;;;5007113;28;20094;-67
2021/12/07 07:34:58;;;;;;;7.35;2.25;;;;;;;;;;5005683;28;20065;-67
2021/12/07 07:37:24;;;;;;;7.68;2.92;;;;;;;;;;5007160;28;20088;-67
2021/12/07 07:39:49;;;;;;;8.10;2.83;;;;;;;;;;5005492;28;20110;-67
2021/12/07 07:42:14;;;;;;;7.75;2.80;;;;;;;;;;5012015;28;20049;-65
2021/12/07 07:44:40;;;;;;;10.88;3.53;;;;;;;;;;5026040;28;20083;-67
2021/12/07 07:47:06;;;;;;;8.63;2.53;;;;;;;;;;5028638;28;20106;-67
2021/12/07 07:49:32;;;;;;;11.85;3.60;;;;;;;;;;5015397;28;20057;-67
2021/12/07 07:51:57;;;;;;;13.73;3.50;;;;;;;;;;5024506;28;20144;-66
2021/12/07 07:54:22;;;;;;;8.20;3.50;;;;;;;;;;5026137;28;20036;-66
2021/12/07 07:56:48;;;;;;;11.18;3.80;;;;;;;;;;5020201;28;20029;-66
2021/12/07 07:59:13;;;;;;;11.68;3.55;;;;;;;;;;5028214;28;20072;-66
2021/12/07 08:01:39;;;;;;;7.68;3.08;;;;;;;;;;5024800;28;20099;-69
2021/12/07 08:04:04;;;;;;;6.32;1.98;;;;;;;;;;5027516;28;20044;-69
2021/12/07 08:06:30;;;;;;;8.02;2.30;;;;;;;;;;5029183;28;20045;-70
2021/12/07 08:08:57;;;;;;;8.77;3.17;;;;;;;;;;5029192;28;20041;-69
2021/12/07 08:11:23;;;;;;;9.90;2.47;;;;;;;;;;5025596;28;20037;-69
2021/12/07 08:13:50;;;;;;;7.03;2.22;;;;;;;;;;5026263;28;20038;-68
2021/12/07 08:16:16;;;;;;;11.13;2.53;;;;;;;;;;5019817;28;20526;-68
2021/12/07 08:18:44;;;;;;;12.55;2.40;;;;;;;;;;5024339;28;20041;-68
2021/12/07 08:21:10;;;;;;;10.20;2.60;;;;;;;;;;5025850;28;21301;-68
2021/12/07 08:23:36;;;;;;;10.00;3.40;;;;;;;;;;5027430;28;20406;-67
2021/12/07 08:26:03;;;;;;;8.40;2.42;;;;;;;;;;5025608;28;20073;-68
2021/12/07 08:28:28;;;;;;;5.10;1.77;;;;;;;;;;5026462;28;20037;-68
2021/12/07 08:30:54;;;;;;;5.15;1.45;;;;;;;;;;5026212;28;20095;-68
2021/12/07 08:33:19;;;;;;;5.00;1.27;;;;;;;;;;5021525;28;20041;-68
2021/12/07 08:35:45;;;;;;;6.53;2.20;;;;;;;;;;5027567;28;20052;-68
2021/12/07 08:38:10;;;;;;;7.00;2.40;;;;;;;;;;5027812;28;20082;-68
2021/12/07 08:40:39;;;;;;;4.28;1.42;;;;;;;;;;5026818;28;20068;-68
2021/12/07 08:43:05;;;;;;;8.82;2.13;;;;;;;;;;5010214;28;20070;-69
2021/12/07 08:45:31;;;;;;;1.70;1.55;;;;;;;;;;4991208;28;20117;-69
2021/12/07 08:47:58;;;;;;;3.65;2.00;;;;;;;;;;5007957;28;20105;-68
2021/12/07 08:50:26;;;;;;;9.13;2.40;;;;;;;;;;5005716;28;20104;-68
2021/12/07 08:52:53;;;;;;;6.95;2.50;;;;;;;;;;5006919;28;20037;-68
2021/12/07 09:00:48;;;;;;;6.57;2.03;;;;;;;;;;4996239;28;20056;-67
2021/12/07 09:03:14;;;;;;;5.18;1.65;;;;;;;;;;5000123;28;20037;-69
2021/12/07 09:05:39;;;;;;;8.52;2.70;;;;;;;;;;5009242;28;20025;-69
2021/12/07 09:08:05;;;;;;;13.25;2.72;;;;;;;;;;4988188;28;20428;-69
2021/12/07 09:10:30;;;;;;;3.08;1.65;;;;;;;;;;4994270;28;20096;-70
2021/12/07 09:12:56;;;;;;;8.52;2.22;;;;;;;;;;5015063;28;20108;-71
2021/12/07 09:15:21;;;;;;;9.25;2.63;;;;;;;;;;5007268;28;20534;-70
2021/12/07 09:17:46;;;;;;;7.82;2.40;;;;;;;;;;5006496;28;20093;-71
2021/12/07 09:20:15;;;;;;;7.25;1.83;;;;;;;;;;5006897;28;20026;-69
2021/12/07 09:22:45;;;;;;;5.28;2.22;;;;;;;;;;4995714;28;20048;-69
2021/12/07 09:25:12;;;;;;;8.32;2.60;;;;;;;;;;4984881;28;20058;-69
2021/12/07 09:27:37;;;;;;;11.98;3.13;;;;;;;;;;4998769;28;20050;-68
2021/12/07 09:30:06;;;;;;;4.53;1.98;;;;;;;;;;5009971;28;20108;-70
2021/12/07 09:32:31;;;;;;;7.43;2.83;;;;;;;;;;5017286;28;20053;-69
2021/12/07 09:34:57;;;;;;;5.90;2.45;;;;;;;;;;5013475;28;20068;-69
2021/12/07 09:37:22;;;;;;;13.07;2.60;;;;;;;;;;5012892;28;20415;-69
2021/12/07 09:39:48;;;;;;;11.20;3.15;;;;;;;;;;5004260;28;20041;-68
2021/12/07 09:42:13;;;;;;;15.95;5.30;;;;;;;;;;5018207;28;20099;-69
2021/12/07 09:44:38;;;;;;;12.85;4.75;;;;;;;;;;5030969;28;20021;-69
2021/12/07 09:47:04;;;;;;;12.75;4.97;;;;;;;;;;5031113;28;20034;-70
2021/12/07 09:49:29;;;;;;;14.63;4.95;;;;;;;;;;5024540;28;20026;-68
2021/12/07 09:51:55;;;;;;;11.38;3.38;;;;;;;;;;5031393;28;20041;-68
2021/12/07 09:54:20;;;;;;;6.82;2.65;;;;;;;;;;5029183;28;20026;-69
2021/12/07 09:56:46;;;;;;;4.53;2.10;;;;;;;;;;5029913;28;20029;-68
2021/12/07 09:59:11;;;;;;;25.38;2.83;;;;;;;;;;5024563;28;20033;-66
2021/12/07 10:01:39;;;;;;;6.13;2.40;;;;;;;;;;5025983;28;20112;-67
2021/12/07 10:04:06;;;;;;;6.45;2.80;;;;;;;;;;5017566;28;20037;-68
2021/12/07 10:06:31;;;;;;;7.03;1.88;;;;;;;;;;5025538;28;20038;-67
2021/12/07 10:08:57;;;;;;;11.82;3.35;;;;;;;;;;5028469;28;20091;-68
2021/12/07 10:11:23;;;;;;;4.35;1.75;;;;;;;;;;5026256;28;20440;-70
2021/12/07 10:13:51;;;;;;;6.30;2.13;;;;;;;;;;5026086;28;20044;-69
2021/12/07 10:16:18;;;;;;;6.82;2.80;;;;;;;;;;5029187;28;20064;-68
2021/12/07 10:18:44;;;;;;;6.63;2.50;;;;;;;;;;5028722;28;20061;-67
2021/12/07 10:21:18;;;;;;;9.68;2.78;;;;;;;;;;5022960;28;20151;-68
2021/12/07 10:24:08;;;;;;;8.20;2.90;;;;;;;;;;5012085;28;20026;-69
2021/12/07 10:26:37;;;;;;;6.85;2.92;;;;;;;;;;5030767;28;20041;-68
2021/12/07 10:29:08;;;;;;;5.38;2.15;;;;;;;;;;5030792;28;20099;-68
2021/12/07 10:31:35;;;;;;;16.92;3.97;;;;;;;;;;5026376;28;20044;-69
2021/12/07 10:34:08;;;;;;;11.85;4.57;;;;;;;;;;5026469;28;20040;-68
2021/12/07 10:36:39;;;;;;;3.97;2.37;;;;;;;;;;5027296;28;20026;-69
2021/12/07 10:39:20;;;;;;;8.73;3.50;;;;;;;;;;5030786;28;22175;-70
2021/12/07 10:41:48;;;;;;;8.15;3.22;;;;;;;;;;5027843;28;20041;-71
2021/12/07 10:44:16;;;;;;;10.82;3.95;;;;;;;;;;5006965;28;20036;-70
2021/12/07 10:46:45;;;;;;;11.35;4.20;;;;;;;;;;5029305;28;20073;-70
2021/12/07 10:49:18;;;;;;;9.98;4.30;;;;;;;;;;5027814;28;20068;-71
2021/12/07 10:52:07;;;;;;;14.23;5.90;;;;;;;;;;5029996;28;20040;-68
2021/12/07 10:55:05;;;;;;;10.30;3.92;;;;;;;;;;5024174;28;20128;-71
2021/12/07 10:57:38;;;;;;;11.15;4.03;;;;;;;;;;5025450;28;20080;-69
2021/12/07 11:00:03;;;;;;;10.95;4.55;;;;;;;;;;5015636;28;20026;-69
2021/12/07 11:02:33;;;;;;;12.55;5.35;;;;;;;;;;5026035;28;20026;-67
2021/12/07 11:05:00;;;;;;;17.38;6.38;;;;;;;;;;5029159;28;20072;-68
2021/12/07 11:07:28;;;;;;;12.30;4.95;;;;;;;;;;5029013;28;20076;-69
2021/12/07 11:12:49;;;;;;;7.60;3.70;;;;;;;;;;5023714;28;20515;-68
2021/12/07 11:15:22;;;;;;;10.38;3.97;;;;;;;;;;5021631;28;20029;-69
2021/12/07 11:17:48;;;;;;;8.98;4.28;;;;;;;;;;5024441;28;20546;-69
2021/12/07 11:20:13;;;;;;;13.68;6.28;;;;;;;;;;5021066;28;20028;-69
2021/12/07 11:22:44;;;;;;;9.77;3.83;;;;;;;;;;5029396;28;20044;-70
2021/12/07 11:25:10;;;;;;;16.35;3.80;;;;;;;;;;5029463;28;20112;-70
2021/12/07 11:30:29;;;;;;;7.50;3.55;;;;;;;;;;5025876;28;20087;-70
2021/12/07 11:32:57;;;;;;;5.40;2.58;;;;;;;;;;5029082;28;20041;-70
2021/12/07 11:35:33;;;;;;;8.93;3.08;;;;;;;;;;5029092;28;20025;-70
2021/12/07 11:38:03;;;;;;;9.57;3.90;;;;;;;;;;5028070;28;20041;-70
2021/12/07 11:40:38;;;;;;;11.50;5.25;;;;;;;;;;5029085;28;20522;-70
2021/12/07 11:43:18;;;;;;;9.20;4.22;;;;;;;;;;5023116;28;20106;-70
2021/12/07 11:45:44;;;;;;;12.38;4.13;;;;;;;;;;5025482;28;20048;-71
2021/12/07 11:48:10;;;;;;;8.63;4.32;;;;;;;;;;5026884;28;20037;-68
2021/12/07 11:50:36;;;;;;;13.48;4.53;;;;;;;;;;5026892;28;20505;-70
2021/12/07 11:53:06;;;;;;;6.03;3.10;;;;;;;;;;5023205;28;20049;-70
2021/12/07 11:55:33;;;;;;;9.95;3.83;;;;;;;;;;5012546;28;20037;-71
2021/12/07 11:57:59;;;;;;;13.88;4.85;;;;;;;;;;5020601;28;20046;-70
2021/12/07 12:00:34;;;;;;;13.68;6.05;;;;;;;;;;5027366;28;20033;-70
2021/12/07 12:03:05;;;;;;;9.70;3.95;;;;;;;;;;5022835;28;20025;-67
2021/12/07 12:05:30;;;;;;;9.68;4.30;;;;;;;;;;5025213;28;20033;-70
2021/12/07 12:07:56;;;;;;;9.90;5.18;;;;;;;;;;5028031;28;20041;-69
2021/12/07 12:10:22;;;;;;;10.05;4.05;;;;;;;;;;5022553;28;20033;-70
2021/12/07 12:13:11;;;;;;;6.32;3.10;;;;;;;;;;5025709;28;20083;-71
2021/12/07 12:15:46;;;;;;;7.40;3.25;;;;;;;;;;5017713;28;20037;-69
2021/12/07 12:18:44;;;;;;;7.88;3.70;;;;;;;;;;5026234;28;20482;-69
2021/12/07 12:21:57;;;;;;;12.70;4.03;;;;;;;;;;5025356;28;20046;-69
2021/12/07 12:24:35;;;;;;;8.77;2.47;;;;;;;;;;5002127;28;20048;-70
2021/12/07 12:27:12;;;;;;;7.60;3.33;;;;;;;;;;5025675;28;23326;-68
2021/12/07 12:29:40;;;;;;;6.38;2.05;;;;;;;;;;5028308;28;20087;-67
2021/12/07 12:32:08;;;;;;;6.85;2.72;;;;;;;;;;5026182;28;20033;-68
2021/12/07 12:34:36;;;;;;;6.03;2.83;;;;;;;;;;5023344;28;20038;-68
2021/12/07 12:37:16;;;;;;;6.50;1.83;;;;;;;;;;5026850;28;20099;-69
2021/12/07 12:40:09;;;;;;;7.05;2.92;;;;;;;;;;5027224;28;20045;-69
2021/12/07 12:42:46;;;;;;;9.23;2.80;;;;;;;;;;5003328;28;20103;-70
2021/12/07 12:45:20;;;;;;;3.92;2.25;;;;;;;;;;5029716;28;20809;-72
2021/12/07 12:48:07;;;;;;;6.03;2.67;;;;;;;;;;5026856;28;20028;-68
2021/12/07 12:50:33;;;;;;;8.63;2.80;;;;;;;;;;5022201;28;20041;-68
2021/12/07 12:53:08;;;;;;;4.85;2.28;;;;;;;;;;5023892;28;20049;-70
2021/12/07 12:55:57;;;;;;;4.95;2.33;;;;;;;;;;5025746;28;20045;-71
2021/12/07 12:58:29;;;;;;;7.25;3.08;;;;;;;;;;5014236;28;20522;-70
2021/12/07 13:01:00;;;;;;;10.07;3.00;;;;;;;;;;5024280;28;20091;-68
2021/12/07 13:03:48;;;;;;;6.82;2.85;;;;;;;;;;5018749;28;20045;-68
2021/12/07 13:06:18;;;;;;;7.32;3.58;;;;;;;;;;5031415;28;20079;-69
2021/12/07 13:09:00;;;;;;;8.88;3.45;;;;;;;;;;5031223;28;20025;-69
2021/12/07 13:11:46;;;;;;;9.90;3.75;;;;;;;;;;5032245;28;20037;-67
2021/12/07 13:14:24;;;;;;;7.90;3.67;;;;;;;;;;5015848;28;20076;-70
2021/12/07 13:17:14;;;;;;;8.23;2.78;;;;;;;;;;5023807;28;20087;-72
2021/12/07 13:20:17;;;;;;;7.20;3.28;;;;;;;;;;5022868;28;20045;-70
2021/12/07 13:23:12;;;;;;;11.73;2.90;;;;;;;;;;5016970;28;20044;-69
2021/12/07 13:25:40;;;;;;;6.18;3.22;;;;;;;;;;5024807;28;20044;-68
2021/12/07 13:28:13;;;;;;;13.90;4.13;;;;;;;;;;5025057;28;20053;-69
2021/12/07 13:30:41;;;;;;;13.77;4.78;;;;;;;;;;5027391;28;20065;-72
2021/12/07 13:33:20;;;;;;;19.83;5.90;;;;;;;;;;5028167;28;20037;-71
2021/12/07 13:35:47;;;;;;;6.40;3.22;;;;;;;;;;5028808;28;20029;-68
2021/12/07 13:38:22;;;;;;;11.18;4.70;;;;;;;;;;5012679;28;20578;-70
2021/12/07 13:40:50;;;;;;;8.55;3.35;;;;;;;;;;5012219;28;20598;-71
2021/12/07 13:43:34;;;;;;;11.25;2.05;;;;;;;;;;5025293;28;20061;-70
2021/12/07 13:46:18;;;;;;;3.53;1.67;;;;;;;;;;5024113;28;20515;-70
2021/12/07 13:48:46;;;;;;;7.28;2.60;;;;;;;;;;5028042;28;20104;-74
2021/12/07 13:51:13;;;;;;;6.22;2.88;;;;;;;;;;5026597;28;20045;-73
2021/12/07 13:53:42;;;;;;;4.85;2.20;;;;;;;;;;5026688;28;20035;-69
2021/12/07 13:56:09;;;;;;;5.63;1.63;;;;;;;;;;5023333;28;20042;-70
2021/12/07 13:58:53;;;;;;;6.18;2.63;;;;;;;;;;5028438;28;20030;-71
2021/12/07 14:01:19;;;;;;;4.75;2.58;;;;;;;;;;5022173;28;20188;-71
2021/12/07 14:03:46;;;;;;;5.97;2.30;;;;;;;;;;5010901;28;20083;-69
2021/12/07 14:06:13;;;;;;;4.20;1.60;;;;;;;;;;5007974;28;20091;-71
2021/12/07 14:08:38;;;;;;;3.72;1.70;;;;;;;;;;5028697;28;20033;-71
2021/12/07 14:11:04;;;;;;;5.93;2.83;;;;;;;;;;5029145;28;20623;-71
2021/12/07 14:13:30;;;;;;;4.32;1.95;;;;;;;;;;5014481;28;20041;-70
2021/12/07 14:15:56;;;;;;;3.05;1.67;;;;;;;;;;5026071;28;20071;-74
2021/12/07 14:18:24;;;;;;;4.07;2.25;;;;;;;;;;5010604;28;20053;-71
2021/12/07 14:20:57;;;;;;;7.05;2.10;;;;;;;;;;5027279;28;20094;-69
2021/12/07 14:23:22;;;;;;;3.97;1.58;;;;;;;;;;5000724;28;20410;-76
2021/12/07 14:26:12;;;;;;;5.28;1.95;;;;;;;;;;5025710;28;20513;-76
2021/12/07 14:28:45;;;;;;;5.47;2.63;;;;;;;;;;4995529;28;20045;-69
2021/12/07 14:31:17;;;;;;;1.88;1.67;;;;;;;;;;5025634;28;20125;-72
2021/12/07 14:33:48;;;;;;;5.25;2.15;;;;;;;;;;5021015;28;20037;-72
2021/12/07 14:36:17;;;;;;;6.10;2.42;;;;;;;;;;5021904;28;20038;-68
2021/12/07 14:38:46;;;;;;;6.05;2.72;;;;;;;;;;5003218;28;20037;-69
2021/12/07 14:41:14;;;;;;;10.90;4.07;;;;;;;;;;5022479;28;20049;-68
2021/12/07 14:43:41;;;;;;;5.65;3.55;;;;;;;;;;5025525;28;20072;-68
2021/12/07 14:46:13;;;;;;;7.30;2.92;;;;;;;;;;5027222;28;20541;-68
2021/12/07 14:48:40;;;;;;;12.85;2.75;;;;;;;;;;5021607;28;20045;-68
2021/12/07 14:51:12;;;;;;;3.60;1.80;;;;;;;;;;5027178;28;20061;-68
2021/12/07 14:53:50;;;;;;;3.72;1.83;;;;;;;;;;5026790;28;20068;-69
2021/12/07 14:56:18;;;;;;;8.95;2.33;;;;;;;;;;5003142;28;20549;-69
2021/12/07 14:58:46;;;;;;;4.90;1.83;;;;;;;;;;5015358;28;20034;-69
2021/12/07 15:01:15;;;;;;;5.53;2.00;;;;;;;;;;5026401;28;20526;-69
2021/12/07 15:03:48;;;;;;;5.43;1.30;;;;;;;;;;5023645;28;20037;-69
2021/12/07 15:06:14;;;;;;;5.05;1.98;;;;;;;;;;5007272;28;20056;-69
2021/12/07 15:08:41;;;;;;;5.75;2.20;;;;;;;;;;5028839;28;20029;-70
2021/12/07 15:11:08;;;;;;;4.80;1.83;;;;;;;;;;5027471;28;20073;-70
2021/12/07 15:13:34;;;;;;;5.78;2.47;;;;;;;;;;5025675;28;20041;-67
2021/12/07 15:16:04;;;;;;;5.53;2.78;;;;;;;;;;5026715;28;20525;-66
2021/12/07 15:18:41;;;;;;;4.00;1.70;;;;;;;;;;5025937;28;20110;-69
2021/12/07 15:21:16;;;;;;;10.77;2.75;;;;;;;;;;5022993;28;20061;-70
2021/12/07 15:23:53;;;;;;;7.25;2.72;;;;;;;;;;5022463;28;20061;-70
2021/12/07 15:26:21;;;;;;;7.78;2.78;;;;;;;;;;5021094;28;20091;-71
2021/12/07 15:29:05;;;;;;;8.50;2.55;;;;;;;;;;5025086;28;20052;-71
2021/12/07 15:31:36;;;;;;;7.22;2.70;;;;;;;;;;5026332;28;20041;-72
2021/12/07 15:34:03;;;;;;;5.78;2.17;;;;;;;;;;5022758;28;20041;-69
2021/12/07 15:36:31;;;;;;;10.57;3.67;;;;;;;;;;5022751;28;20092;-68
2021/12/07 15:39:11;;;;;;;5.32;2.55;;;;;;;;;;5022232;28;20124;-67
2021/12/07 15:41:38;;;;;;;7.68;2.33;;;;;;;;;;5017668;28;20481;-69
2021/12/07 15:44:04;;;;;;;3.97;1.50;;;;;;;;;;5003564;28;20046;-71
2021/12/07 15:46:29;;;;;;;6.40;2.40;;;;;;;;;;5005964;28;20053;-69
2021/12/07 15:48:57;;;;;;;11.25;2.40;;;;;;;;;;5002158;28;20052;-75
2021/12/07 15:51:24;;;;;;;5.03;1.38;;;;;;;;;;5006668;28;20049;-70
2021/12/07 15:53:55;;;;;;;6.88;1.77;;;;;;;;;;5012633;28;20107;-71
2021/12/07 15:56:22;;;;;;;7.88;1.92;;;;;;;;;;4989990;28;20022;-70
2021/12/07 15:58:48;;;;;;;4.22;2.63;;;;;;;;;;5005009;28;20038;-72
2021/12/07 16:01:14;;;;;;;6.07;2.20;;;;;;;;;;5001636;28;20053;-72
2021/12/07 16:03:47;;;;;;;6.13;2.50;;;;;;;;;;5002407;28;20042;-70
2021/12/07 16:06:27;;;;;;;5.13;2.00;;;;;;;;;;5004380;28;20083;-71
2021/12/07 16:08:53;;;;;;;7.40;2.55;;;;;;;;;;5004878;28;20037;-70
2021/12/07 16:11:20;;;;;;;6.28;2.03;;;;;;;;;;4999664;28;20030;-70
2021/12/07 16:13:54;;;;;;;4.47;2.28;;;;;;;;;;5007796;28;20046;-69
2021/12/07 16:16:25;;;;;;;4.53;2.28;;;;;;;;;;4997827;28;20103;-68
2021/12/07 16:18:52;;;;;;;7.35;2.25;;;;;;;;;;5001663;28;20065;-69
2021/12/07 16:21:18;;;;;;;3.75;1.70;;;;;;;;;;5008173;28;20049;-71
2021/12/07 16:23:51;;;;;;;12.48;2.45;;;;;;;;;;5000392;28;20030;-70
2021/12/07 16:26:17;;;;;;;8.88;2.67;;;;;;;;;;4992044;28;20103;-70
2021/12/07 16:28:46;;;;;;;6.07;1.95;;;;;;;;;;4983676;28;20578;-70
2021/12/07 16:31:13;;;;;;;9.82;2.08;;;;;;;;;;5003685;28;20034;-69
2021/12/07 16:33:41;;;;;;;4.50;2.42;;;;;;;;;;5005279;28;20034;-71